Airfield :
LOGIN :

Register | Disclaimer

   EN    FR    IT 

 










Legend :    VFR   Marginal VFR   IFR   Intensive IFR   Very Intensive IFR
Visi :
Ceiling :
>= 8 km
>= 3000ft
5 to 8 km
1000 to 3000 ft
1500m to 5 km
500 to 1000 ft
800 to 1500m
200 to 500 ft
< 800m
< 200 ft
Symbols :   Thunderstorms  Fog  Heavy snow  Heavy precipitations  Wind > 20 kt
SIGMETs :     Misc.  Thunderstorms  Icing  Turbulence  Mountain Waves  Volcanic Ashes







- Airport Elevation : 204 ft
- IATA code : AGF
- Download approach charts


LFBA - Agen

CURRENT METAR :
  • 301630Z AUTO 21005KT 180V240 9999 FEW034/// SCT041/// BKN052/// ///TCU 08/05 Q1009 TEMPO 27018G30KT 4000 SHRA

EXPIRED METARs :
  • 301600Z AUTO 27011KT 9999 RA BKN034/// OVC047/// ///TCU 08/05 Q1008 TEMPO 27018G30KT 4000 SHRA
  • 301530Z AUTO 28017G29KT 8000 -RA FEW026/// BKN037/// BKN046/// ///TCU 08/06 Q1008 TEMPO 4000 SHRA
  • 301500Z AUTO 30026G38KT 9999 -RA FEW022/// BKN054/// BKN064/// ///TCU 08/06 Q1008 TEMPO 4000 SHRA
  • 301430Z AUTO 28022G35KT 8000 RA BKN016/// BKN030/// BKN040/// ///TCU 10/07 Q1007 TEMPO 4000 SHRA
  • 301400Z AUTO 29018KT 9999 -RA BKN016/// BKN023/// BKN037/// ///TCU 11/08 Q1006 TEMPO 27018G30KT 4000 SHRA BKN020 BKN050CB

TAF TAF LFBA
Valid from the 30 at 15:00 until the 01 at 00:00 UTC


301400Z 3015/3024 27012KT 9999 BKN020 BKN050
TEMPO 3015/3024 27018G30KT 4000 SHRA BKN015 BKN050TCU
No reported NOTAMs for that airfield.
3 SIGMETs reported for the Bordeaux FIR (LFBB) :
 
Severe turbulence
LFBB SIGMET 8 VALID 301200/301600 LFPW
LFBB BORDEAUX FIR/UIR SEV TURB FCST WI N4300 W00115 - N4300 W00145 - N4545 W00145 - N4545 W00030 SFC/FL070 MOV E 15KT NC=
Severe turbulence
LFBB SIGMET 14 VALID 301600/302000 LFPW
LFBB BORDEAUX FIR/UIR SEV TURB FCST WI N4630 E00300 - N4215 E00230 - N4230 E00145 - N4600 E00100 SFC/FL070 STNR WKN=
Squall lined thunderstorms
LFBB SIGMET 13 VALID 301500/301700 LFPW
LFBB BORDEAUX FIR/UIR SQL TS OBS WI N4715 E00200 - N4645 E00230 - N4300 E00200 - N4300 E00115 TOP FL300 MOV E 15KT NC=



MET'MAP, your aeronautical weather chart ! - Copyright ORBIFLY December 2007 - Disclaimer

ORBIFLY MET'MAP TEAM :

Programming & Development : Alexandra Zaïnal
Concept & Development : Baudouin d'Aumeries
Co-Development & Prog : Marc-Olivier Méhu
Technical & hardware support : Manuel Goepfert

Contact : metmap@orbifly.com




SOURCES & CREDITS :

   NOAA